Time;durP1;ratioP1;P1;durP2;ratioP2;P2;SDS_P1;SDS_P2;PMS_P1;PMS_P2;Temp;Humidity;BMP_temperature;BMP_pressure;BME280_temperature;BME280_humidity;BME280_pressure;Samples;Min_cycle;Max_cycle;Signal;HPM_P1;HPM_P2
2022/01/28 00:01:06;;;;;;;6.30;1.43;;;6.70;99.90;;;;;;5082709;28;20203;-58
2022/01/28 00:03:35;;;;;;;10.77;1.40;;;6.70;99.90;;;;;;5066448;28;20205;-58
2022/01/28 00:06:03;;;;;;;6.57;1.63;;;6.60;99.90;;;;;;5065326;28;20303;-59
2022/01/28 00:08:30;;;;;;;10.00;1.80;;;6.60;99.90;;;;;;5079096;28;20207;-58
2022/01/28 00:10:57;;;;;;;9.13;1.50;;;6.60;99.90;;;;;;5083653;28;20302;-57
2022/01/28 00:37:38;;;;;;;10.10;1.53;;;6.60;99.90;;;;;;5083315;28;20621;-60
2022/01/28 00:40:05;;;;;;;8.07;1.10;;;6.50;99.90;;;;;;5083973;28;20201;-58
2022/01/28 00:42:31;;;;;;;7.83;1.27;;;6.50;99.90;;;;;;5085653;28;20515;-59
2022/01/28 00:44:58;;;;;;;10.93;1.33;;;6.50;99.90;;;;;;5081908;28;20654;-58
2022/01/28 00:47:25;;;;;;;5.50;1.30;;;6.50;99.90;;;;;;5085500;28;20271;-59
2022/01/28 00:49:52;;;;;;;5.43;1.80;;;6.40;99.90;;;;;;5063743;28;20269;-58
2022/01/28 00:52:19;;;;;;;6.10;1.27;;;6.40;99.90;;;;;;5083535;28;20210;-58
2022/01/28 00:54:46;;;;;;;8.17;1.10;;;6.50;99.90;;;;;;5085059;28;20548;-59
2022/01/28 00:57:13;;;;;;;12.90;1.93;;;6.50;99.90;;;;;;5046844;28;1079029;-57
2022/01/28 00:59:39;;;;;;;7.83;1.40;;;6.50;99.90;;;;;;5082344;28;20461;-57
2022/01/28 01:02:06;;;;;;;8.70;1.27;;;6.40;99.90;;;;;;5085004;28;20261;-58
2022/01/28 01:04:33;;;;;;;10.77;1.50;;;6.40;99.90;;;;;;5082363;28;20204;-58
2022/01/28 01:07:01;;;;;;;7.80;1.27;;;6.40;99.90;;;;;;5085055;28;20253;-57
2022/01/28 01:09:28;;;;;;;7.80;1.50;;;6.40;99.90;;;;;;5083125;28;20310;-57
2022/01/28 01:11:55;;;;;;;8.00;1.50;;;6.40;99.90;;;;;;5083441;28;20240;-56
2022/01/28 01:14:22;;;;;;;7.83;0.97;;;6.50;99.90;;;;;;5076576;28;20253;-57
2022/01/28 01:19:28;;;;;;;6.57;1.87;;;6.50;99.90;;;;;;5079171;28;20840;-56
2022/01/28 01:21:58;;;;;;;12.57;2.07;;;6.40;99.90;;;;;;5082055;28;20206;-57
2022/01/28 01:24:28;;;;;;;7.83;1.33;;;6.30;99.90;;;;;;5082778;28;20655;-59
2022/01/28 01:26:58;;;;;;;4.90;0.97;;;6.40;99.90;;;;;;5083128;28;20289;-59
2022/01/28 01:29:25;;;;;;;11.30;1.53;;;6.50;99.90;;;;;;5079120;28;20681;-58
2022/01/28 01:32:00;;;;;;;9.07;1.77;;;6.60;99.90;;;;;;5082577;28;20252;-58
2022/01/28 01:34:28;;;;;;;6.07;1.50;;;6.50;99.90;;;;;;5061236;28;20225;-63
2022/01/28 01:36:55;;;;;;;10.30;1.30;;;6.40;99.90;;;;;;5079329;28;20656;-58
2022/01/28 01:39:29;;;;;;;5.60;1.10;;;6.50;99.90;;;;;;5079656;28;20333;-57
2022/01/28 01:42:03;;;;;;;6.77;1.50;;;6.50;99.90;;;;;;5079504;28;20256;-57
2022/01/28 01:52:29;;;;;;;7.57;1.40;;;6.60;99.90;;;;;;5077687;28;20208;-57
2022/01/28 01:54:56;;;;;;;12.03;1.40;;;6.60;99.90;;;;;;5081441;28;20231;-59
2022/01/28 01:57:23;;;;;;;7.17;1.40;;;6.60;99.90;;;;;;5079069;28;20249;-58
2022/01/28 01:59:49;;;;;;;8.27;1.60;;;6.60;99.90;;;;;;5078732;28;20318;-59
2022/01/28 02:02:16;;;;;;;10.30;1.77;;;6.60;99.90;;;;;;5082313;28;20241;-59
2022/01/28 02:04:43;;;;;;;7.90;1.30;;;6.60;99.90;;;;;;5080112;28;20519;-59
2022/01/28 02:07:14;;;;;;;7.97;1.93;;;6.60;99.90;;;;;;5084008;28;20627;-58
2022/01/28 02:09:42;;;;;;;9.33;1.27;;;6.70;99.90;;;;;;5080097;28;21130;-59
2022/01/28 02:12:09;;;;;;;9.57;1.70;;;6.60;99.90;;;;;;5081565;28;20206;-59
2022/01/28 02:14:37;;;;;;;5.57;1.70;;;6.70;99.90;;;;;;5082660;28;20547;-55
2022/01/28 02:17:05;;;;;;;4.47;0.73;;;6.60;99.90;;;;;;5068418;28;20198;-55
2022/01/28 02:19:32;;;;;;;9.33;1.30;;;6.60;99.90;;;;;;5081137;28;20206;-57
2022/01/28 02:21:59;;;;;;;10.70;1.60;;;6.60;99.90;;;;;;5085241;28;20647;-57
2022/01/28 02:24:32;;;;;;;8.90;1.23;;;6.60;99.90;;;;;;5081073;28;20354;-59
2022/01/28 02:27:00;;;;;;;8.13;1.33;;;6.60;99.90;;;;;;5083754;28;20662;-56
2022/01/28 02:29:30;;;;;;;14.10;1.63;;;6.60;99.90;;;;;;5080323;28;20207;-56
2022/01/28 02:31:59;;;;;;;9.37;1.70;;;6.70;99.90;;;;;;5084727;28;20199;-59
2022/01/28 02:34:26;;;;;;;10.50;1.53;;;6.70;99.90;;;;;;5080174;28;20213;-58
2022/01/28 02:36:55;;;;;;;9.00;1.70;;;6.70;99.90;;;;;;5082363;28;20247;-58
2022/01/28 02:39:22;;;;;;;7.07;1.70;;;6.70;99.90;;;;;;5064867;28;20694;-57
2022/01/28 02:41:53;;;;;;;4.40;1.47;;;6.70;99.90;;;;;;5077989;28;20206;-58
2022/01/28 02:44:40;;;;;;;6.83;1.10;;;6.70;99.90;;;;;;5058714;28;20951;-58
2022/01/28 02:47:12;;;;;;;7.13;1.30;;;6.70;99.90;;;;;;5082756;28;20271;-58
2022/01/28 02:49:39;;;;;;;5.47;2.33;;;6.80;99.90;;;;;;5081100;28;20650;-58
2022/01/28 02:52:08;;;;;;;6.97;1.20;;;6.70;99.90;;;;;;5082946;28;20565;-58
2022/01/28 02:54:44;;;;;;;11.93;1.63;;;6.70;99.90;;;;;;5081290;28;20211;-59
2022/01/28 02:57:11;;;;;;;9.20;1.53;;;6.80;99.90;;;;;;5061141;28;20220;-59
2022/01/28 02:59:38;;;;;;;4.03;1.23;;;6.80;99.90;;;;;;5060366;28;20722;-59
2022/01/28 03:02:05;;;;;;;4.80;1.20;;;6.80;99.90;;;;;;5078351;28;20227;-62
2022/01/28 03:06:59;;;;;;;6.80;1.40;;;6.90;99.90;;;;;;5076600;28;20282;-59
2022/01/28 03:09:36;;;;;;;6.33;1.43;;;6.90;99.90;;;;;;5077036;28;20285;-58
2022/01/28 03:12:16;;;;;;;8.73;1.00;;;6.90;99.90;;;;;;5080237;28;20204;-58
2022/01/28 03:17:50;;;;;;;5.57;1.07;;;7.00;99.90;;;;;;5078060;28;20219;-58
2022/01/28 03:20:32;;;;;;;10.93;1.20;;;7.00;99.90;;;;;;5081393;28;20264;-59
2022/01/28 03:22:59;;;;;;;5.93;1.57;;;7.10;99.90;;;;;;5078822;28;20297;-58
2022/01/28 03:25:26;;;;;;;6.10;1.20;;;6.90;99.90;;;;;;5079596;28;20242;-58
2022/01/28 03:27:55;;;;;;;6.13;1.30;;;6.90;99.90;;;;;;5076191;28;20295;-58
2022/01/28 03:30:23;;;;;;;7.73;1.00;;;7.00;99.90;;;;;;5072877;28;20217;-58
2022/01/28 03:32:50;;;;;;;7.73;1.20;;;7.00;99.90;;;;;;5077144;28;20199;-59
2022/01/28 03:35:34;;;;;;;5.47;1.20;;;6.90;99.90;;;;;;5077777;28;20208;-57
2022/01/28 03:38:06;;;;;;;7.40;1.50;;;6.90;99.90;;;;;;5066136;28;20283;-59
2022/01/28 03:40:36;;;;;;;8.00;1.30;;;6.80;99.90;;;;;;5078357;28;20260;-60
2022/01/28 03:43:04;;;;;;;6.57;1.80;;;6.60;99.90;;;;;;5082458;28;20668;-59
2022/01/28 03:45:31;;;;;;;8.07;1.50;;;6.60;99.90;;;;;;5081600;28;20201;-58
2022/01/28 03:47:58;;;;;;;6.37;1.80;;;6.70;99.90;;;;;;5083696;28;20230;-59
2022/01/28 03:50:25;;;;;;;10.33;1.70;;;6.80;99.90;;;;;;5069516;28;20637;-58
2022/01/28 03:52:52;;;;;;;7.50;1.20;;;6.70;99.90;;;;;;5084172;28;20292;-62
2022/01/28 03:55:18;;;;;;;9.13;1.90;;;6.80;99.90;;;;;;5081720;28;20745;-59
2022/01/28 03:57:45;;;;;;;7.80;1.73;;;6.70;99.90;;;;;;5080914;28;20203;-60
2022/01/28 04:00:13;;;;;;;9.07;1.40;;;6.60;99.90;;;;;;5078316;28;20287;-57
2022/01/28 04:02:43;;;;;;;5.83;1.37;;;6.60;99.90;;;;;;5081524;28;20651;-59
2022/01/28 04:06:20;;;;;;;9.43;1.57;;;6.70;99.90;;;;;;5080001;28;20207;-58
2022/01/28 04:13:28;;;;;;;9.17;2.00;;;6.50;99.90;;;;;;5082144;28;20211;-55
2022/01/28 04:18:25;;;;;;;7.57;1.70;;;6.60;99.90;;;;;;5081460;28;20195;-57
2022/01/28 04:20:52;;;;;;;4.87;1.30;;;6.60;99.90;;;;;;5082951;28;20658;-58
2022/01/28 04:23:19;;;;;;;7.17;1.30;;;6.50;99.90;;;;;;5083949;28;20202;-58
2022/01/28 04:25:46;;;;;;;12.03;1.47;;;6.50;99.90;;;;;;5080769;28;20326;-59
2022/01/28 04:28:13;;;;;;;7.80;1.37;;;6.50;99.90;;;;;;5060674;28;20243;-58
2022/01/28 04:30:39;;;;;;;5.97;1.33;;;6.50;99.90;;;;;;5078974;28;20249;-58
2022/01/28 04:33:09;;;;;;;6.97;1.10;;;6.40;99.90;;;;;;5085011;28;20620;-58
2022/01/28 04:35:37;;;;;;;5.47;1.20;;;6.40;99.90;;;;;;5065110;28;20724;-57
2022/01/28 04:41:04;;;;;;;9.43;1.57;;;6.40;99.90;;;;;;5074818;28;20309;-57
2022/01/28 04:44:11;;;;;;;8.53;1.27;;;6.40;99.90;;;;;;5081716;28;20245;-58
2022/01/28 04:46:30;;;;;;;3.53;1.20;;;6.40;99.90;;;;;;5076494;28;20202;-58
2022/01/28 04:49:08;;;;;;;8.97;2.10;;;6.40;99.90;;;;;;5081648;28;20205;-59
2022/01/28 04:54:41;;;;;;;5.07;1.67;;;6.30;99.90;;;;;;5078459;28;20646;-59
2022/01/28 04:57:26;;;;;;;4.33;1.53;;;6.20;99.90;;;;;;5079623;28;20250;-56
2022/01/28 05:06:22;;;;;;;6.70;1.37;;;6.40;99.90;;;;;;5000377;28;20552;-56
2022/01/28 05:14:35;;;;;;;9.63;1.93;;;6.10;99.90;;;;;;5000138;28;20260;-58
2022/01/28 05:23:08;;;;;;;6.90;1.60;;;6.20;99.90;;;;;;5000529;28;20214;-58
2022/01/28 05:28:12;;;;;;;12.10;1.83;;;6.20;99.90;;;;;;4959102;28;20236;-59
2022/01/28 05:30:39;;;;;;;6.00;1.10;;;6.10;99.90;;;;;;4983842;28;20687;-59
2022/01/28 05:33:06;;;;;;;6.43;1.00;;;6.20;99.90;;;;;;5000952;28;20284;-58
2022/01/28 05:35:33;;;;;;;5.23;1.23;;;6.20;99.90;;;;;;4997359;28;20281;-58
2022/01/28 05:37:59;;;;;;;7.70;1.50;;;6.20;99.90;;;;;;5071996;28;20718;-58
2022/01/28 05:40:26;;;;;;;9.33;1.67;;;6.10;99.90;;;;;;5074346;28;20191;-59
2022/01/28 05:42:53;;;;;;;12.27;1.90;;;6.20;99.90;;;;;;5081065;28;20295;-57
2022/01/28 05:45:20;;;;;;;5.93;1.00;;;6.20;99.90;;;;;;5079783;28;20651;-59
2022/01/28 05:47:47;;;;;;;6.47;1.10;;;6.10;99.90;;;;;;5077689;28;20717;-58
2022/01/28 05:50:13;;;;;;;8.60;1.47;;;6.10;99.90;;;;;;5077466;28;20305;-58
2022/01/28 05:52:40;;;;;;;6.37;1.53;;;6.10;99.90;;;;;;5078026;28;20208;-58
2022/01/28 05:55:08;;;;;;;7.37;1.47;;;6.20;99.90;;;;;;5075617;28;20201;-59
2022/01/28 05:57:34;;;;;;;7.83;1.97;;;6.10;99.90;;;;;;5079023;28;20236;-58
2022/01/28 06:00:03;;;;;;;7.00;1.57;;;6.20;99.90;;;;;;5080636;28;20845;-58
2022/01/28 06:02:29;;;;;;;5.40;2.30;;;6.30;99.90;;;;;;5082103;28;20217;-59
2022/01/28 06:04:56;;;;;;;7.30;1.60;;;6.30;99.90;;;;;;5064748;28;20500;-60
2022/01/28 06:07:23;;;;;;;10.27;1.57;;;6.20;99.90;;;;;;5084600;28;21020;-59
2022/01/28 06:09:50;;;;;;;9.23;1.77;;;6.10;99.90;;;;;;5080217;28;20225;-58
2022/01/28 06:12:17;;;;;;;6.27;1.67;;;6.10;99.90;;;;;;5083701;28;20217;-58
2022/01/28 06:14:44;;;;;;;6.47;1.50;;;6.20;99.90;;;;;;5065861;28;20257;-58
2022/01/28 06:17:10;;;;;;;5.87;1.17;;;6.10;99.90;;;;;;5087234;28;20278;-58
2022/01/28 06:19:37;;;;;;;8.93;1.40;;;6.10;99.90;;;;;;5083478;28;20227;-57
2022/01/28 06:22:04;;;;;;;8.33;1.23;;;6.00;99.90;;;;;;5068686;28;20289;-58
2022/01/28 06:24:31;;;;;;;9.30;1.63;;;6.10;99.90;;;;;;5080811;28;20970;-58
2022/01/28 06:26:58;;;;;;;7.03;1.70;;;6.00;99.90;;;;;;5084075;28;20198;-57
2022/01/28 06:29:25;;;;;;;8.63;1.73;;;6.00;99.90;;;;;;5082621;28;20626;-58
2022/01/28 06:31:51;;;;;;;4.27;1.47;;;6.00;99.90;;;;;;5085618;28;20264;-58
2022/01/28 06:34:18;;;;;;;9.57;1.30;;;6.10;99.90;;;;;;5064709;28;20206;-58
2022/01/28 06:36:45;;;;;;;10.07;1.70;;;6.00;99.90;;;;;;5081802;28;20655;-56
2022/01/28 06:39:12;;;;;;;5.97;1.50;;;5.90;99.90;;;;;;5083465;28;20234;-57
2022/01/28 06:41:39;;;;;;;5.57;1.60;;;6.00;99.90;;;;;;5078157;28;20715;-58
2022/01/28 06:44:06;;;;;;;6.13;1.50;;;6.00;99.90;;;;;;5080219;28;20670;-58
2022/01/28 06:46:33;;;;;;;9.33;1.33;;;6.00;99.90;;;;;;5082474;28;20195;-58
2022/01/28 06:49:00;;;;;;;8.77;1.70;;;6.10;99.90;;;;;;5073870;28;20222;-57
2022/01/28 06:51:26;;;;;;;11.93;1.70;;;6.10;99.90;;;;;;5062230;28;20225;-58
2022/01/28 06:53:53;;;;;;;4.83;1.43;;;6.10;99.90;;;;;;5078531;28;20591;-57
2022/01/28 06:56:20;;;;;;;7.73;2.43;;;6.10;99.90;;;;;;5057284;28;20237;-58
2022/01/28 06:58:47;;;;;;;6.97;1.57;;;6.00;99.90;;;;;;5083396;28;20237;-57
2022/01/28 07:01:13;;;;;;;9.80;1.83;;;6.00;99.90;;;;;;5074923;28;20890;-58
2022/01/28 07:03:41;;;;;;;6.70;1.73;;;6.10;99.90;;;;;;5084179;28;20234;-57
2022/01/28 07:06:07;;;;;;;9.43;1.57;;;6.10;99.90;;;;;;5083670;28;20741;-58
2022/01/28 07:08:34;;;;;;;5.13;1.57;;;6.20;99.90;;;;;;5081826;28;20237;-59
2022/01/28 07:11:01;;;;;;;4.73;1.60;;;6.10;99.90;;;;;;5080550;28;20705;-58
2022/01/28 07:13:28;;;;;;;5.67;1.27;;;6.10;99.90;;;;;;5085595;28;20342;-62
2022/01/28 07:15:55;;;;;;;6.70;1.97;;;6.10;99.90;;;;;;5087814;28;20201;-58
2022/01/28 07:18:24;;;;;;;12.50;1.83;;;6.10;99.90;;;;;;5082844;28;20202;-57
2022/01/28 07:20:51;;;;;;;10.10;1.93;;;6.00;99.90;;;;;;5064027;28;20228;-58
2022/01/28 07:23:18;;;;;;;10.53;1.60;;;6.00;99.90;;;;;;5087985;28;20190;-58
2022/01/28 07:25:44;;;;;;;9.03;2.00;;;6.00;99.90;;;;;;5075682;28;20204;-57
2022/01/28 07:28:11;;;;;;;5.63;1.50;;;5.90;99.90;;;;;;5078711;28;20209;-57
2022/01/28 07:30:39;;;;;;;11.17;1.90;;;5.90;99.90;;;;;;5062289;28;20323;-58
2022/01/28 07:33:08;;;;;;;9.97;1.80;;;5.90;99.90;;;;;;5082335;28;20704;-58
2022/01/28 07:35:34;;;;;;;7.17;1.57;;;5.90;99.90;;;;;;5083360;28;20736;-57
2022/01/28 07:38:01;;;;;;;7.73;1.63;;;5.80;99.90;;;;;;5085165;28;21846;-58
2022/01/28 07:40:28;;;;;;;14.60;1.80;;;5.90;99.90;;;;;;5077041;28;20289;-56
2022/01/28 07:42:55;;;;;;;3.20;1.30;;;6.00;99.90;;;;;;5058585;28;20658;-57
2022/01/28 07:45:22;;;;;;;10.13;1.60;;;6.10;99.90;;;;;;5062376;28;20265;-57
2022/01/28 07:47:49;;;;;;;8.33;1.57;;;6.10;99.90;;;;;;5062362;28;20573;-58
2022/01/28 07:50:16;;;;;;;6.97;1.60;;;6.10;99.90;;;;;;5080067;28;20268;-58
2022/01/28 07:52:43;;;;;;;4.90;1.30;;;6.00;99.90;;;;;;5064170;28;21030;-59
2022/01/28 07:55:12;;;;;;;4.83;1.50;;;5.90;99.90;;;;;;5083020;28;20657;-59
2022/01/28 07:57:39;;;;;;;5.27;1.67;;;5.70;99.90;;;;;;5062373;28;20225;-59
2022/01/28 08:00:09;;;;;;;8.50;1.60;;;5.40;99.90;;;;;;5070920;28;20265;-59
2022/01/28 08:02:36;;;;;;;9.90;1.30;;;5.50;99.90;;;;;;5072128;28;20259;-57
2022/01/28 08:05:03;;;;;;;7.47;1.80;;;5.20;99.90;;;;;;5070563;28;20221;-58
2022/01/28 08:07:30;;;;;;;8.83;1.80;;;5.20;99.90;;;;;;5050673;28;20342;-58
2022/01/28 08:09:57;;;;;;;5.20;1.53;;;5.50;99.90;;;;;;5067396;28;20324;-61
2022/01/28 08:12:24;;;;;;;8.60;1.83;;;5.70;99.90;;;;;;5069692;28;20557;-58
2022/01/28 08:14:51;;;;;;;12.03;1.60;;;5.80;99.90;;;;;;5068197;28;20231;-57
2022/01/28 08:17:18;;;;;;;6.73;1.67;;;5.80;99.90;;;;;;5068706;28;20775;-58
2022/01/28 08:19:44;;;;;;;11.15;1.98;;;5.90;99.90;;;;;;5067579;28;20444;-55
2022/01/28 08:22:11;;;;;;;7.70;1.93;;;5.80;99.90;;;;;;5068672;28;20322;-56
2022/01/28 08:24:39;;;;;;;4.87;1.57;;;5.70;99.90;;;;;;5037944;28;20205;-57
2022/01/28 08:27:06;;;;;;;5.00;1.53;;;5.90;99.90;;;;;;5071143;28;20208;-56
2022/01/28 08:29:33;;;;;;;8.23;1.33;;;6.30;99.90;;;;;;5065867;28;20662;-57
2022/01/28 08:31:59;;;;;;;6.23;1.37;;;6.10;99.90;;;;;;5064489;28;20224;-56
2022/01/28 08:34:26;;;;;;;6.90;2.30;;;6.30;99.90;;;;;;5065058;28;20207;-55
2022/01/28 08:36:53;;;;;;;8.77;1.63;;;6.10;99.90;;;;;;5066571;28;20373;-56
2022/01/28 08:39:22;;;;;;;11.60;2.00;;;6.00;99.90;;;;;;5068586;28;20230;-55
2022/01/28 08:41:49;;;;;;;12.03;2.67;;;5.90;99.90;;;;;;5068147;28;20243;-55
2022/01/28 08:44:16;;;;;;;4.90;1.53;;;6.10;99.90;;;;;;5062412;28;20204;-55
2022/01/28 08:46:44;;;;;;;4.10;1.57;;;6.40;99.90;;;;;;5086123;28;20209;-55
2022/01/28 08:49:11;;;;;;;6.70;1.30;;;6.80;99.90;;;;;;5092484;28;20202;-57
2022/01/28 08:51:38;;;;;;;9.70;1.97;;;7.00;99.90;;;;;;5086835;28;20223;-55
2022/01/28 08:54:05;;;;;;;13.23;2.40;;;7.20;99.90;;;;;;5092278;28;20195;-56
2022/01/28 08:56:32;;;;;;;8.13;1.57;;;7.20;99.90;;;;;;5061748;28;20204;-56
2022/01/28 08:59:09;;;;;;;4.00;1.90;;;6.90;99.90;;;;;;5082758;28;20231;-54
2022/01/28 09:01:36;;;;;;;8.10;2.00;;;7.00;99.90;;;;;;5074686;28;20372;-56
2022/01/28 09:04:03;;;;;;;9.93;2.00;;;7.00;99.90;;;;;;5075535;28;20199;-56
2022/01/28 09:06:30;;;;;;;8.73;3.03;;;7.00;99.90;;;;;;5075004;28;20238;-55
2022/01/28 09:09:00;;;;;;;12.60;3.17;;;6.80;99.90;;;;;;5077218;28;20927;-56
2022/01/28 09:13:55;;;;;;;5.13;1.87;;;6.70;99.90;;;;;;5076350;28;20554;-57
2022/01/28 09:16:22;;;;;;;10.90;1.80;;;6.80;99.90;;;;;;5075430;28;20204;-58
2022/01/28 09:18:50;;;;;;;2.90;1.40;;;6.80;99.90;;;;;;5080715;28;20203;-57
2022/01/28 09:21:19;;;;;;;2.67;1.47;;;6.70;99.90;;;;;;5079446;28;20214;-56
2022/01/28 09:23:46;;;;;;;6.50;1.93;;;6.80;99.90;;;;;;5078899;28;20254;-59
2022/01/28 09:26:13;;;;;;;12.70;2.20;;;7.00;99.90;;;;;;5078122;28;20202;-57
2022/01/28 09:28:41;;;;;;;8.47;1.93;;;7.20;99.90;;;;;;5073623;28;20573;-58
2022/01/28 09:31:08;;;;;;;9.97;2.13;;;7.50;99.90;;;;;;5076720;28;20366;-59
2022/01/28 09:33:37;;;;;;;9.17;2.50;;;7.60;99.90;;;;;;5075251;28;20224;-57
2022/01/28 09:36:07;;;;;;;10.27;2.17;;;8.10;99.90;;;;;;5079775;28;20214;-55
2022/01/28 09:38:35;;;;;;;11.70;2.87;;;8.80;99.90;;;;;;5080463;28;20689;-57
2022/01/28 09:41:04;;;;;;;9.83;3.70;;;9.00;99.90;;;;;;5076052;28;20860;-57
2022/01/28 09:43:32;;;;;;;13.27;3.30;;;9.20;99.90;;;;;;5077215;28;20264;-57
2022/01/28 09:46:02;;;;;;;8.87;3.03;;;9.20;99.90;;;;;;5080780;28;20318;-57
2022/01/28 09:48:30;;;;;;;9.00;3.13;;;9.50;99.90;;;;;;5079727;28;20660;-58
2022/01/28 09:51:02;;;;;;;9.10;2.47;;;9.30;99.90;;;;;;5078074;28;20291;-58
2022/01/28 09:53:29;;;;;;;9.30;3.03;;;9.20;99.90;;;;;;5079377;28;20300;-56
2022/01/28 09:55:57;;;;;;;10.40;2.77;;;9.80;99.90;;;;;;5076619;28;20311;-61
2022/01/28 09:58:24;;;;;;;7.83;2.80;;;10.30;99.90;;;;;;5076251;28;20229;-57
2022/01/28 10:00:52;;;;;;;13.03;3.53;;;9.60;99.90;;;;;;5079249;28;20676;-58
2022/01/28 10:03:19;;;;;;;8.23;2.43;;;9.80;99.90;;;;;;5075474;28;20271;-57
2022/01/28 10:05:50;;;;;;;6.47;2.60;;;9.90;99.90;;;;;;5075990;28;20574;-55
2022/01/28 10:08:23;;;;;;;11.03;2.70;;;9.80;99.90;;;;;;5081083;28;20207;-57
2022/01/28 10:11:12;;;;;;;8.73;3.90;;;9.50;99.90;;;;;;5079299;28;20220;-58
2022/01/28 10:16:06;;;;;;;15.35;10.30;;;9.60;99.90;;;;;;5084472;28;21166;-59
2022/01/28 10:18:46;;;;;;;12.97;8.70;;;9.90;99.90;;;;;;5068414;28;20286;-60
2022/01/28 10:21:44;;;;;;;14.90;8.87;;;9.80;99.90;;;;;;5084851;28;20298;-62
2022/01/28 10:24:16;;;;;;;12.27;6.53;;;9.80;99.90;;;;;;5083006;28;20213;-60
2022/01/28 10:27:06;;;;;;;11.40;5.03;;;10.00;99.90;;;;;;5057450;28;20266;-65
2022/01/28 10:29:35;;;;;;;7.67;4.10;;;10.40;99.90;;;;;;5080959;28;20244;-61
2022/01/28 10:32:26;;;;;;;11.37;3.73;;;10.30;99.90;;;;;;5081884;28;20306;-59
2022/01/28 10:34:53;;;;;;;10.77;3.13;;;10.90;99.90;;;;;;5074725;28;20204;-58
2022/01/28 10:37:21;;;;;;;7.00;2.30;;;11.50;99.90;;;;;;5078759;28;20718;-60
2022/01/28 10:39:52;;;;;;;6.53;1.50;;;11.90;99.90;;;;;;5079675;28;20207;-58
2022/01/28 10:42:50;;;;;;;6.00;1.57;;;12.00;99.90;;;;;;5082054;28;20649;-60
2022/01/28 10:45:20;;;;;;;6.37;1.60;;;12.00;99.90;;;;;;5081713;28;20205;-60
2022/01/28 10:47:49;;;;;;;3.57;1.30;;;11.50;99.90;;;;;;5087988;28;20629;-62
2022/01/28 10:50:33;;;;;;;7.73;1.50;;;11.50;99.90;;;;;;5069884;28;20231;-60
2022/01/28 10:53:10;;;;;;;7.43;1.23;;;11.80;99.90;;;;;;5083277;28;20618;-60
2022/01/28 10:55:48;;;;;;;7.77;1.97;;;11.10;99.90;;;;;;5082925;28;20906;-58
2022/01/28 10:58:17;;;;;;;7.93;2.33;;;11.60;99.90;;;;;;5076717;28;20289;-60
2022/01/28 11:00:47;;;;;;;5.40;1.20;;;11.60;99.90;;;;;;5083043;28;20192;-59
2022/01/28 11:03:26;;;;;;;4.63;1.43;;;11.80;99.90;;;;;;5086784;28;20195;-60
2022/01/28 11:05:57;;;;;;;12.50;1.90;;;11.70;99.90;;;;;;5083172;28;20228;-60
2022/01/28 11:08:25;;;;;;;8.80;1.77;;;11.50;99.90;;;;;;5085020;28;20216;-62
2022/01/28 11:10:52;;;;;;;9.10;2.10;;;11.40;99.90;;;;;;5066020;28;20301;-58
2022/01/28 11:13:19;;;;;;;8.23;2.00;;;11.60;99.90;;;;;;5085002;28;20607;-60
2022/01/28 11:15:46;;;;;;;7.93;1.80;;;11.50;99.90;;;;;;5081773;28;20271;-60
2022/01/28 11:18:14;;;;;;;7.40;2.07;;;11.70;99.90;;;;;;5083862;28;20221;-60
2022/01/28 11:20:47;;;;;;;12.50;2.03;;;11.70;99.90;;;;;;5082014;28;20280;-59
2022/01/28 11:23:23;;;;;;;5.50;1.93;;;12.10;99.90;;;;;;5083903;28;20244;-60
2022/01/28 11:26:16;;;;;;;6.63;1.70;;;12.20;99.90;;;;;;5082121;28;20226;-60
2022/01/28 11:28:50;;;;;;;8.10;2.03;;;11.30;99.90;;;;;;5082625;28;20683;-60
2022/01/28 11:31:44;;;;;;;7.20;2.10;;;11.10;99.90;;;;;;5084216;28;20204;-60
2022/01/28 11:34:23;;;;;;;11.57;1.90;;;11.60;99.90;;;;;;5082384;28;20258;-60
2022/01/28 11:36:52;;;;;;;7.90;2.80;;;11.40;99.90;;;;;;5085996;28;20271;-59
2022/01/28 11:39:33;;;;;;;9.03;2.03;;;11.60;99.90;;;;;;5075817;28;20209;-59
2022/01/28 11:42:17;;;;;;;6.17;1.77;;;11.50;99.90;;;;;;5081445;28;20290;-59
2022/01/28 11:44:50;;;;;;;6.57;1.67;;;11.30;99.90;;;;;;5083910;28;20252;-59
2022/01/28 11:47:38;;;;;;;7.13;1.93;;;11.30;99.90;;;;;;5081738;28;20217;-57
2022/01/28 11:50:05;;;;;;;13.33;2.23;;;12.40;99.90;;;;;;5081648;28;20205;-60
2022/01/28 11:52:51;;;;;;;9.43;1.40;;;12.30;99.90;;;;;;5086142;28;20222;-57
2022/01/28 11:55:17;;;;;;;9.07;2.17;;;11.70;99.90;;;;;;5082154;28;20295;-60
2022/01/28 11:57:54;;;;;;;7.27;1.93;;;12.40;99.90;;;;;;5086871;28;20911;-59
2022/01/28 12:00:24;;;;;;;9.27;1.80;;;12.20;99.90;;;;;;5076951;28;20232;-60
2022/01/28 12:02:52;;;;;;;5.93;1.43;;;12.60;99.90;;;;;;5089714;28;20672;-60
2022/01/28 12:05:31;;;;;;;7.93;1.50;;;12.70;99.90;;;;;;5086563;28;20284;-61
2022/01/28 12:08:04;;;;;;;12.00;1.63;;;12.60;99.90;;;;;;5092626;28;20572;-59
2022/01/28 12:10:35;;;;;;;4.40;1.10;;;12.50;99.90;;;;;;5083661;28;20237;-62
2022/01/28 12:13:05;;;;;;;5.47;1.27;;;12.40;99.90;;;;;;5064651;28;20254;-61
2022/01/28 12:15:59;;;;;;;9.17;2.57;;;12.40;99.90;;;;;;5070365;28;20261;-64
2022/01/28 12:18:54;;;;;;;4.10;2.50;;;12.60;99.90;;;;;;5090179;28;20197;-60
2022/01/28 12:21:26;;;;;;;8.70;1.80;;;12.30;99.90;;;;;;5080998;28;20296;-59
2022/01/28 12:24:15;;;;;;;12.70;1.97;;;11.50;99.90;;;;;;5081744;28;20229;-60
2022/01/28 12:27:00;;;;;;;6.83;1.67;;;10.60;99.90;;;;;;5089366;28;20298;-60
2022/01/28 12:29:36;;;;;;;3.50;1.50;;;10.50;99.90;;;;;;5083493;28;20201;-61
2022/01/28 12:32:04;;;;;;;9.37;1.90;;;10.50;99.90;;;;;;5088953;28;20206;-60
2022/01/28 12:34:32;;;;;;;8.90;1.70;;;11.10;99.90;;;;;;5094675;28;20264;-60
2022/01/28 12:36:59;;;;;;;9.23;1.50;;;11.90;99.90;;;;;;5079547;28;20279;-60
2022/01/28 12:42:26;;;;;;;8.70;2.00;;;12.20;99.90;;;;;;5084962;28;20214;-61
2022/01/28 12:45:00;;;;;;;10.80;1.90;;;11.70;99.90;;;;;;5096907;28;20702;-58
2022/01/28 12:47:32;;;;;;;9.00;1.60;;;12.00;99.90;;;;;;5095647;28;20233;-59
2022/01/28 12:50:03;;;;;;;6.87;1.37;;;12.00;99.90;;;;;;5096121;28;20417;-59
2022/01/28 12:52:32;;;;;;;8.30;2.20;;;12.70;99.90;;;;;;5094307;28;20226;-58
2022/01/28 12:54:59;;;;;;;6.93;2.63;;;12.40;99.90;;;;;;5095903;28;20592;-59
2022/01/28 12:57:26;;;;;;;6.53;2.20;;;11.70;99.90;;;;;;5097408;28;20202;-59
2022/01/28 12:59:53;;;;;;;9.93;2.60;;;11.30;99.90;;;;;;5096667;28;20235;-58
2022/01/28 13:02:20;;;;;;;6.23;2.60;;;10.80;99.90;;;;;;5097144;28;20317;-61
2022/01/28 13:05:10;;;;;;;11.20;2.50;;;10.80;99.90;;;;;;5093629;28;20647;-58
2022/01/28 13:10:32;;;;;;;8.70;2.43;;;10.40;99.90;;;;;;5094349;28;20603;-59
2022/01/28 13:13:04;;;;;;;8.23;2.63;;;10.20;99.90;;;;;;5096379;28;20264;-59
2022/01/28 13:15:31;;;;;;;6.80;2.83;;;10.10;99.90;;;;;;5098034;28;20746;-62
2022/01/28 13:18:02;;;;;;;7.33;2.90;;;10.00;99.90;;;;;;5097434;28;20202;-60
2022/01/28 13:20:40;;;;;;;10.17;3.10;;;9.80;99.90;;;;;;5096830;28;20198;-61
2022/01/28 13:23:10;;;;;;;9.47;2.87;;;10.00;99.90;;;;;;5095030;28;20241;-61
2022/01/28 13:25:38;;;;;;;9.53;3.17;;;10.10;99.90;;;;;;5094678;28;20673;-62
2022/01/28 13:28:12;;;;;;;5.03;2.70;;;10.10;99.90;;;;;;5079101;28;20202;-61
2022/01/28 13:30:40;;;;;;;7.47;2.80;;;9.90;99.90;;;;;;5097613;28;20217;-60
2022/01/28 13:33:10;;;;;;;9.37;3.10;;;10.00;99.90;;;;;;5096831;28;20214;-61
2022/01/28 13:35:39;;;;;;;7.60;2.80;;;10.10;99.90;;;;;;5097173;28;20621;-59
2022/01/28 13:38:19;;;;;;;8.53;2.27;;;9.70;99.90;;;;;;5096097;28;20536;-59
2022/01/28 13:40:46;;;;;;;12.60;2.53;;;9.80;99.90;;;;;;5094639;28;20201;-58
2022/01/28 13:43:16;;;;;;;6.07;2.30;;;9.80;99.90;;;;;;5095932;28;20313;-59
2022/01/28 13:45:57;;;;;;;6.50;2.10;;;10.30;99.90;;;;;;5095272;28;20198;-58
2022/01/28 13:48:34;;;;;;;11.93;2.30;;;10.30;99.90;;;;;;5095411;28;20246;-61
2022/01/28 13:51:17;;;;;;;6.03;2.00;;;10.50;99.90;;;;;;5062227;28;20233;-58
2022/01/28 13:56:34;;;;;;;18.13;7.70;;;11.20;99.90;;;;;;5077579;28;20190;-61
2022/01/28 13:59:08;;;;;;;5.67;2.33;;;11.90;99.90;;;;;;5094987;28;20641;-61
2022/01/28 14:01:35;;;;;;;7.73;2.53;;;12.00;99.90;;;;;;5080367;28;20278;-61
2022/01/28 14:04:04;;;;;;;7.10;1.70;;;12.10;99.90;;;;;;5096476;28;20606;-61
2022/01/28 14:06:35;;;;;;;3.77;1.70;;;12.20;99.90;;;;;;5093230;28;20255;-61
2022/01/28 14:09:12;;;;;;;6.53;1.93;;;11.70;99.90;;;;;;5090332;28;20230;-60
2022/01/28 14:11:43;;;;;;;7.27;2.33;;;11.80;99.90;;;;;;5085945;28;20210;-59
2022/01/28 14:15:11;;;;;;;8.10;2.20;;;11.60;99.90;;;;;;5090360;28;20701;-60
2022/01/28 14:17:07;;;;;;;5.60;1.80;;;11.20;99.90;;;;;;5072931;28;20678;-60
2022/01/28 14:19:37;;;;;;;6.70;2.33;;;11.30;99.90;;;;;;5082073;28;20191;-60
2022/01/28 14:22:09;;;;;;;8.20;2.20;;;11.30;99.90;;;;;;5085092;28;20195;-60
2022/01/28 14:24:52;;;;;;;7.07;2.23;;;11.20;99.90;;;;;;5066588;28;20554;-58
2022/01/28 14:30:03;;;;;;;6.87;2.07;;;11.40;99.90;;;;;;5078778;28;20232;-57
2022/01/28 14:32:30;;;;;;;8.73;2.40;;;11.60;99.90;;;;;;5085799;28;20202;-58
2022/01/28 14:34:57;;;;;;;11.17;2.47;;;11.60;99.90;;;;;;5051234;28;20671;-58
2022/01/28 14:37:27;;;;;;;9.00;3.30;;;11.30;99.90;;;;;;5077532;28;20182;-64
2022/01/28 14:39:54;;;;;;;6.23;1.77;;;11.10;99.90;;;;;;5064012;28;20250;-61